createdAt,value
2024-04-15T00:02:18.122Z,98493.00
2024-04-15T00:04:46.340Z,98488.00
2024-04-15T00:07:20.331Z,98485.00
2024-04-15T00:09:55.629Z,98487.00
2024-04-15T00:12:31.544Z,98489.00
2024-04-15T00:15:02.902Z,98478.00
2024-04-15T00:17:40.389Z,98484.00
2024-04-15T00:20:15.118Z,98484.00
2024-04-15T00:22:56.159Z,98477.00
2024-04-15T00:25:29.534Z,98469.00
2024-04-15T00:28:01.140Z,98466.00
2024-04-15T00:30:36.522Z,98461.00
2024-04-15T00:33:08.398Z,98462.00
2024-04-15T00:35:49.138Z,98462.00
2024-04-15T00:38:27.358Z,98450.00
2024-04-15T00:40:59.717Z,98453.00
2024-04-15T00:43:39.132Z,98448.00
2024-04-15T00:46:13.337Z,98446.00
2024-04-15T00:48:48.775Z,98447.00
2024-04-15T00:51:23.110Z,98446.00
2024-04-15T00:54:05.125Z,98446.00
2024-04-15T00:56:34.525Z,98445.00
2024-04-15T00:59:07.910Z,98435.00
2024-04-15T01:01:37.491Z,98441.00
2024-04-15T01:04:08.652Z,98433.00
2024-04-15T01:06:37.423Z,98427.00
2024-04-15T01:09:11.605Z,98422.00
2024-04-15T01:11:40.084Z,98428.00
2024-04-15T01:14:11.742Z,98426.00
2024-04-15T01:16:41.824Z,98412.00
2024-04-15T01:19:13.425Z,98411.00
2024-04-15T01:21:41.699Z,98402.00
2024-04-15T01:24:15.843Z,98404.00
2024-04-15T01:26:48.089Z,98408.00
2024-04-15T01:29:21.504Z,98399.00
2024-04-15T01:31:56.202Z,98400.00
2024-04-15T01:34:31.104Z,98389.00
2024-04-15T01:37:04.005Z,98386.00
2024-04-15T01:39:42.288Z,98385.00
2024-04-15T01:42:13.229Z,98384.00
2024-04-15T01:44:56.485Z,98377.00
2024-04-15T01:47:25.389Z,98382.00
2024-04-15T01:50:10.967Z,98377.00
2024-04-15T01:52:47.114Z,98377.00
2024-04-15T01:55:24.709Z,98368.00
2024-04-15T01:57:53.015Z,98376.00
2024-04-15T02:00:24.264Z,98376.00
2024-04-15T02:02:52.533Z,98371.00
2024-04-15T02:05:25.918Z,98369.00
2024-04-15T02:08:07.107Z,98368.00
2024-04-15T02:10:49.150Z,98361.00
2024-04-15T02:13:19.119Z,98357.00
2024-04-15T02:15:51.969Z,98349.00
2024-04-15T02:18:27.707Z,98352.00
2024-04-15T02:21:00.643Z,98350.00
2024-04-15T02:23:32.893Z,98352.00
2024-04-15T02:26:24.907Z,98342.00
2024-04-15T02:28:58.571Z,98345.00
2024-04-15T02:31:42.396Z,98339.00
2024-04-15T02:34:27.387Z,98340.00
2024-04-15T02:37:13.979Z,98332.00
2024-04-15T02:39:51.748Z,98333.00
2024-04-15T02:42:43.236Z,98335.00
2024-04-15T02:45:23.626Z,98332.00
2024-04-15T02:47:56.065Z,98321.00
2024-04-15T02:50:36.985Z,98324.00
2024-04-15T02:53:09.201Z,98322.00
2024-04-15T02:55:55.841Z,98315.00
2024-04-15T02:58:31.082Z,98311.00
2024-04-15T03:01:04.516Z,98317.00
2024-04-15T03:03:32.970Z,98313.00
2024-04-15T03:06:05.317Z,98309.00
2024-04-15T03:08:39.046Z,98300.00
2024-04-15T03:11:15.228Z,98303.00
2024-04-15T03:13:53.779Z,98303.00
2024-04-15T03:16:29.128Z,98296.00
2024-04-15T03:19:01.090Z,98296.00
2024-04-15T03:21:36.935Z,98302.00
2024-04-15T03:24:14.020Z,98301.00
2024-04-15T03:26:45.638Z,98299.00
2024-04-15T03:29:21.172Z,98301.00
2024-04-15T03:31:53.968Z,98295.00
2024-04-15T03:34:26.665Z,98295.00
2024-04-15T03:37:02.195Z,98287.00
2024-04-15T03:39:36.054Z,98292.00
2024-04-15T03:42:10.033Z,98290.00
2024-04-15T03:45:02.694Z,98291.00
2024-04-15T03:47:33.925Z,98291.00
2024-04-15T03:50:15.756Z,98292.00
2024-04-15T03:52:50.020Z,98293.00
2024-04-15T03:55:25.222Z,98293.00
2024-04-15T03:57:57.640Z,98289.00
2024-04-15T04:00:33.730Z,98297.00
2024-04-15T04:03:03.724Z,98288.00
2024-04-15T04:05:36.574Z,98290.00
2024-04-15T04:08:09.132Z,98288.00
2024-04-15T04:10:41.061Z,98291.00
2024-04-15T04:13:12.633Z,98293.00
2024-04-15T04:15:53.632Z,98287.00
2024-04-15T04:18:22.818Z,98289.00
2024-04-15T04:20:55.650Z,98294.00
2024-04-15T04:23:24.125Z,98292.00
2024-04-15T04:26:11.941Z,98289.00
2024-04-15T04:28:49.834Z,98291.00
2024-04-15T04:34:22.897Z,98284.00
2024-04-15T04:37:01.198Z,98286.00
2024-04-15T04:39:29.932Z,98288.00
2024-04-15T04:42:01.841Z,98288.00
2024-04-15T04:44:33.730Z,98281.00
2024-04-15T04:47:15.278Z,98280.00
2024-04-15T04:49:55.345Z,98281.00
2024-04-15T04:52:33.867Z,98284.00
2024-04-15T04:55:09.814Z,98282.00
2024-04-15T04:57:46.275Z,98285.00
2024-04-15T05:00:18.372Z,98282.00
2024-04-15T05:03:01.866Z,98289.00
2024-04-15T05:05:39.874Z,98282.00
2024-04-15T05:08:14.414Z,98285.00
2024-04-15T05:10:54.918Z,98280.00
2024-04-15T05:13:31.122Z,98271.00
2024-04-15T05:16:19.637Z,98285.00
2024-04-15T05:19:04.331Z,98271.00
2024-04-15T05:21:37.645Z,98271.00
2024-04-15T05:24:13.858Z,98280.00
2024-04-15T05:26:43.761Z,98273.00
2024-04-15T05:29:20.277Z,98266.00
2024-04-15T05:31:51.080Z,98266.00
2024-04-15T05:34:30.886Z,98269.00
2024-04-15T05:37:00.590Z,98265.00
2024-04-15T05:39:32.738Z,98268.00
2024-04-15T05:42:01.111Z,98265.00
2024-04-15T05:44:33.153Z,98260.00
2024-04-15T05:47:01.542Z,98258.00
2024-04-15T05:49:38.952Z,98261.00
2024-04-15T05:52:07.548Z,98257.00
2024-04-15T05:54:38.234Z,98251.00
2024-04-15T05:57:06.738Z,98257.00
2024-04-15T05:59:39.940Z,98260.00
2024-04-15T06:02:08.487Z,98258.00
2024-04-15T06:04:42.848Z,98257.00
2024-04-15T06:07:12.819Z,98265.00
2024-04-15T06:09:44.014Z,98264.00
2024-04-15T06:12:12.133Z,98275.00
2024-04-15T06:14:43.061Z,98273.00
2024-04-15T06:17:11.254Z,98272.00
2024-04-15T06:19:47.358Z,98267.00
2024-04-15T06:22:15.582Z,98271.00
2024-04-15T06:24:46.860Z,98280.00
2024-04-15T06:27:15.032Z,98275.00
2024-04-15T06:29:46.026Z,98279.00
2024-04-15T06:32:15.062Z,98280.00
2024-04-15T06:34:48.653Z,98279.00
2024-04-15T06:37:18.453Z,98282.00
2024-04-15T06:39:49.359Z,98285.00
2024-04-15T06:42:22.660Z,98286.00
2024-04-15T06:44:53.490Z,98281.00
2024-04-15T06:47:21.686Z,98291.00
2024-04-15T06:49:55.143Z,98301.00
2024-04-15T06:52:25.826Z,98297.00
2024-04-15T06:54:57.722Z,98297.00
2024-04-15T06:57:26.459Z,98294.00
2024-04-15T06:59:57.411Z,98304.00
2024-04-15T07:02:27.576Z,98312.00
2024-04-15T07:05:01.910Z,98310.00
2024-04-15T07:07:32.264Z,98295.00
2024-04-15T07:10:03.074Z,98303.00
2024-04-15T07:12:32.314Z,98304.00
2024-04-15T07:15:03.216Z,98296.00
2024-04-15T07:17:37.072Z,98306.00
2024-04-15T07:20:14.034Z,98309.00
2024-04-15T07:22:42.747Z,98311.00
2024-04-15T07:25:14.864Z,98310.00
2024-04-15T07:27:50.608Z,98314.00
2024-04-15T07:30:38.156Z,98321.00
2024-04-15T07:33:06.790Z,98320.00
2024-04-15T07:35:43.200Z,98330.00
2024-04-15T07:38:11.351Z,98323.00
2024-04-15T07:40:42.379Z,98313.00
2024-04-15T07:43:10.504Z,98329.00
2024-04-15T07:45:41.255Z,98332.00
2024-04-15T07:48:10.763Z,98335.00
2024-04-15T07:50:46.711Z,98349.00
2024-04-15T07:53:14.949Z,98346.00
2024-04-15T07:55:48.844Z,98339.00
2024-04-15T07:58:17.289Z,98344.00
2024-04-15T08:00:52.103Z,98344.00
2024-04-15T08:03:20.484Z,98344.00
2024-04-15T08:05:55.488Z,98340.00
2024-04-15T08:08:23.708Z,98344.00
2024-04-15T08:10:54.436Z,98348.00
2024-04-15T08:13:23.577Z,98343.00
2024-04-15T08:15:54.794Z,98342.00
2024-04-15T08:18:23.616Z,98330.00
2024-04-15T08:21:01.099Z,98343.00
2024-04-15T08:23:30.431Z,98336.00
2024-04-15T08:26:03.119Z,98353.00
2024-04-15T08:28:34.730Z,98353.00
2024-04-15T08:31:06.472Z,98361.00
2024-04-15T08:33:41.706Z,98352.00
2024-04-15T08:36:37.863Z,98363.00
2024-04-15T08:39:08.283Z,98344.00
2024-04-15T08:42:04.542Z,98356.00
2024-04-15T08:44:41.811Z,98373.00
2024-04-15T08:47:23.246Z,98383.00
2024-04-15T08:49:51.910Z,98391.00
2024-04-15T08:52:25.704Z,98383.00
2024-04-15T08:54:54.141Z,98380.00
2024-04-15T08:57:26.294Z,98394.00
2024-04-15T08:59:58.012Z,98406.00
2024-04-15T09:02:32.627Z,98395.00
2024-04-15T09:05:02.228Z,98406.00
2024-04-15T09:07:37.522Z,98387.00
2024-04-15T09:10:07.244Z,98396.00
2024-04-15T09:12:45.302Z,98402.00
2024-04-15T09:15:15.969Z,98418.00
2024-04-15T09:17:49.239Z,98397.00
2024-04-15T09:20:29.873Z,98419.00
2024-04-15T09:23:14.176Z,98407.00
2024-04-15T09:25:42.298Z,98416.00
2024-04-15T09:28:13.461Z,98404.00
2024-04-15T09:30:41.680Z,98418.00
2024-04-15T09:33:15.801Z,98420.00
2024-04-15T09:35:44.521Z,98458.00
2024-04-15T09:38:20.506Z,98460.00
2024-04-15T09:40:50.624Z,98447.00
2024-04-15T09:43:22.381Z,98450.00
2024-04-15T09:45:52.094Z,98454.00
2024-04-15T09:48:26.397Z,98444.00
2024-04-15T09:51:09.257Z,98454.00
2024-04-15T09:53:47.286Z,98441.00
2024-04-15T09:56:28.755Z,98460.00
2024-04-15T09:59:00.975Z,98465.00
2024-04-15T10:01:32.728Z,98470.00
2024-04-15T10:04:07.663Z,98461.00
2024-04-15T10:06:43.683Z,98465.00
2024-04-15T10:09:20.649Z,98478.00
2024-04-15T10:11:51.907Z,98480.00
2024-04-15T10:14:25.526Z,98477.00
2024-04-15T10:16:57.423Z,98494.00
2024-04-15T10:19:29.242Z,98502.00
2024-04-15T10:21:58.688Z,98500.00
2024-04-15T10:24:32.617Z,98507.00
2024-04-15T10:27:04.873Z,98515.00
2024-04-15T10:29:39.264Z,98521.00
2024-04-15T10:32:09.823Z,98488.00
2024-04-15T10:34:46.174Z,98507.00
2024-04-15T10:37:15.953Z,98493.00
2024-04-15T10:39:56.399Z,98497.00
2024-04-15T10:42:25.058Z,98502.00
2024-04-15T10:44:57.649Z,98519.00
2024-04-15T10:47:27.162Z,98519.00
2024-04-15T10:49:58.118Z,98543.00
2024-04-15T10:52:27.452Z,98528.00
2024-04-15T10:55:01.258Z,98521.00
2024-04-15T10:57:32.684Z,98520.00
2024-04-15T11:00:05.184Z,98538.00
2024-04-15T11:02:34.871Z,98515.00
2024-04-15T11:05:06.069Z,98525.00
2024-04-15T11:07:34.425Z,98536.00
2024-04-15T11:10:13.448Z,98534.00
2024-04-15T11:12:43.330Z,98529.00
2024-04-15T11:15:17.184Z,98544.00
2024-04-15T11:17:50.183Z,98549.00
2024-04-15T11:20:24.339Z,98555.00
2024-04-15T11:22:55.732Z,98565.00
2024-04-15T11:25:32.918Z,98544.00
2024-04-15T11:28:01.987Z,98564.00
2024-04-15T11:30:33.502Z,98562.00
2024-04-15T11:33:09.948Z,98572.00
2024-04-15T11:35:52.206Z,98574.00
2024-04-15T11:38:30.985Z,98572.00
2024-04-15T11:41:15.635Z,98570.00
2024-04-15T11:43:46.687Z,98569.00
2024-04-15T11:46:28.110Z,98567.00
2024-04-15T11:49:01.479Z,98569.00
2024-04-15T11:51:30.546Z,98594.00
2024-04-15T11:54:01.442Z,98588.00
2024-04-15T11:56:32.888Z,98577.00
2024-04-15T11:59:03.951Z,98578.00
2024-04-15T12:01:33.339Z,98582.00
2024-04-15T12:04:05.564Z,98592.00
2024-04-15T12:06:36.033Z,98600.00
2024-04-15T12:09:14.676Z,98587.00
2024-04-15T12:11:49.774Z,98602.00
2024-04-15T12:14:21.379Z,98599.00
2024-04-15T12:16:49.612Z,98596.00
2024-04-15T12:19:20.554Z,98605.00
2024-04-15T12:21:48.842Z,98597.00
2024-04-15T12:24:20.011Z,98599.00
2024-04-15T12:26:54.340Z,98603.00
2024-04-15T12:29:28.773Z,98602.00
2024-04-15T12:31:57.163Z,98599.00
2024-04-15T12:34:28.192Z,98606.00
2024-04-15T12:36:57.307Z,98606.00
2024-04-15T12:39:28.793Z,98610.00
2024-04-15T12:42:01.856Z,98608.00
2024-04-15T12:44:32.747Z,98609.00
2024-04-15T12:47:01.947Z,98616.00
2024-04-15T12:49:32.937Z,98617.00
2024-04-15T12:52:01.207Z,98621.00
2024-04-15T12:54:32.003Z,98622.00
2024-04-15T12:57:03.293Z,98627.00
2024-04-15T12:59:35.747Z,98622.00
2024-04-15T13:02:14.893Z,98630.00
2024-04-15T13:04:58.345Z,98633.00
2024-04-15T13:07:26.717Z,98632.00
2024-04-15T13:10:04.533Z,98629.00
2024-04-15T13:12:36.575Z,98638.00
2024-04-15T13:15:09.623Z,98640.00
2024-04-15T13:17:40.780Z,98639.00
2024-04-15T13:23:14.490Z,98646.00
2024-04-15T13:25:48.861Z,98658.00
2024-04-15T13:28:23.379Z,98656.00
2024-04-15T13:30:55.493Z,98666.00
2024-04-15T13:33:24.255Z,98668.00
2024-04-15T13:35:55.273Z,98684.00
2024-04-15T13:38:23.831Z,98680.00
2024-04-15T13:40:54.978Z,98688.00
2024-04-15T13:43:26.130Z,98687.00
2024-04-15T13:45:56.991Z,98688.00
2024-04-15T13:48:25.236Z,98679.00
2024-04-15T13:50:55.915Z,98695.00
2024-04-15T13:53:24.399Z,98698.00
2024-04-15T13:55:55.301Z,98697.00
2024-04-15T13:58:26.818Z,98706.00
2024-04-15T14:00:58.089Z,98713.00
2024-04-15T14:03:26.534Z,98719.00
2024-04-15T14:05:57.494Z,98721.00
2024-04-15T14:08:27.046Z,98720.00
2024-04-15T14:10:58.495Z,98730.00
2024-04-15T14:13:29.974Z,98741.00
2024-04-15T14:16:01.684Z,98736.00
2024-04-15T14:18:29.947Z,98748.00
2024-04-15T14:21:00.798Z,98726.00
2024-04-15T14:23:28.944Z,98737.00
2024-04-15T14:26:00.074Z,98751.00
2024-04-15T14:28:39.204Z,98752.00
2024-04-15T14:31:10.005Z,98752.00
2024-04-15T14:33:39.938Z,98750.00
2024-04-15T14:36:13.797Z,98755.00
2024-04-15T14:38:46.146Z,98765.00
2024-04-15T14:41:17.869Z,98771.00
2024-04-15T14:43:48.866Z,98776.00
2024-04-15T14:46:20.500Z,98776.00
2024-04-15T14:48:49.470Z,98771.00
2024-04-15T14:51:20.422Z,98781.00
2024-04-15T14:53:49.290Z,98778.00
2024-04-15T14:56:26.906Z,98796.00
2024-04-15T14:58:58.914Z,98788.00
2024-04-15T15:01:31.266Z,98782.00
2024-04-15T15:04:00.584Z,98784.00
2024-04-15T15:06:37.726Z,98787.00
2024-04-15T15:09:09.716Z,98784.00
2024-04-15T15:11:40.914Z,98794.00
2024-04-15T15:14:12.846Z,98798.00
2024-04-15T15:16:45.018Z,98793.00
2024-04-15T15:19:16.011Z,98801.00
2024-04-15T15:22:00.830Z,98788.00
2024-04-15T15:24:34.815Z,98804.00
2024-04-15T15:27:06.726Z,98798.00
2024-04-15T15:29:39.995Z,98798.00
2024-04-15T15:32:11.572Z,98809.00
2024-04-15T15:34:40.002Z,98822.00
2024-04-15T15:37:20.230Z,98817.00
2024-04-15T15:39:49.239Z,98833.00
2024-04-15T15:42:21.434Z,98826.00
2024-04-15T15:44:53.376Z,98826.00
2024-04-15T15:47:24.739Z,98836.00
2024-04-15T15:49:53.328Z,98841.00
2024-04-15T15:52:24.331Z,98825.00
2024-04-15T15:54:53.424Z,98826.00
2024-04-15T15:57:27.671Z,98836.00
2024-04-15T16:00:03.201Z,98835.00
2024-04-15T16:02:49.862Z,98835.00
2024-04-15T16:05:24.981Z,98845.00
2024-04-15T16:08:01.512Z,98853.00
2024-04-15T16:10:33.809Z,98841.00
2024-04-15T16:13:05.261Z,98847.00
2024-04-15T16:15:37.397Z,98856.00
2024-04-15T16:18:12.841Z,98832.00
2024-04-15T16:20:47.824Z,98839.00
2024-04-15T16:23:26.271Z,98862.00
2024-04-15T16:26:09.389Z,98851.00
2024-04-15T16:28:52.867Z,98857.00
2024-04-15T16:31:23.792Z,98852.00
2024-04-15T16:33:57.779Z,98863.00
2024-04-15T16:36:31.974Z,98857.00
2024-04-15T16:39:03.100Z,98861.00
2024-04-15T16:41:32.884Z,98859.00
2024-04-15T16:44:06.055Z,98863.00
2024-04-15T16:46:39.762Z,98858.00
2024-04-15T16:49:11.986Z,98868.00
2024-04-15T16:51:41.235Z,98853.00
2024-04-15T16:54:15.892Z,98861.00
2024-04-15T16:56:52.488Z,98866.00
2024-04-15T16:59:30.886Z,98864.00
2024-04-15T17:02:03.808Z,98872.00
2024-04-15T17:04:47.399Z,98862.00
2024-04-15T17:07:22.400Z,98881.00
2024-04-15T17:09:58.460Z,98881.00
2024-04-15T17:12:35.199Z,98883.00
2024-04-15T17:15:15.295Z,98894.00
2024-04-15T17:17:48.700Z,98896.00
2024-04-15T17:20:20.368Z,98900.00
2024-04-15T17:22:50.888Z,98900.00
2024-04-15T17:25:30.215Z,98903.00
2024-04-15T17:28:01.528Z,98907.00
2024-04-15T17:30:44.982Z,98920.00
2024-04-15T17:33:20.023Z,98921.00
2024-04-15T17:35:55.224Z,98924.00
2024-04-15T17:38:23.510Z,98911.00
2024-04-15T17:40:55.147Z,98920.00
2024-04-15T17:43:27.178Z,98923.00
2024-04-15T17:46:09.755Z,98908.00
2024-04-15T17:48:43.405Z,98922.00
2024-04-15T17:51:19.073Z,98926.00
2024-04-15T17:53:51.069Z,98930.00
2024-04-15T17:56:22.019Z,98937.00
2024-04-15T17:58:58.324Z,98938.00
2024-04-15T18:01:33.151Z,98940.00
2024-04-15T18:04:08.571Z,98942.00
2024-04-15T18:06:42.214Z,98947.00
2024-04-15T18:09:17.572Z,98938.00
2024-04-15T18:11:48.459Z,98937.00
2024-04-15T18:14:19.780Z,98945.00
2024-04-15T18:16:51.382Z,98933.00
2024-04-15T18:19:34.705Z,98950.00
2024-04-15T18:22:12.234Z,98945.00
2024-04-15T18:24:43.722Z,98936.00
2024-04-15T18:27:14.812Z,98945.00
2024-04-15T18:29:43.304Z,98934.00
2024-04-15T18:32:14.853Z,98936.00
2024-04-15T18:34:48.054Z,98937.00
2024-04-15T18:37:23.025Z,98936.00
2024-04-15T18:39:53.839Z,98928.00
2024-04-15T18:42:28.390Z,98938.00
2024-04-15T18:44:58.985Z,98935.00
2024-04-15T18:47:30.560Z,98938.00
2024-04-15T18:50:08.368Z,98930.00
2024-04-15T18:52:41.453Z,98937.00
2024-04-15T18:55:11.908Z,98924.00
2024-04-15T18:57:46.162Z,98947.00
2024-04-15T19:00:19.945Z,98941.00
2024-04-15T19:02:58.045Z,98941.00
2024-04-15T19:05:38.663Z,98933.00
2024-04-15T19:08:14.591Z,98930.00
2024-04-15T19:10:47.352Z,98946.00
2024-04-15T19:13:20.194Z,98961.00
2024-04-15T19:15:51.936Z,98947.00
2024-04-15T19:18:23.250Z,98952.00
2024-04-15T19:21:02.206Z,98959.00
2024-04-15T19:24:07.017Z,98951.00
2024-04-15T19:26:38.445Z,98953.00
2024-04-15T19:29:07.380Z,98954.00
2024-04-15T19:31:38.700Z,98959.00
2024-04-15T19:34:15.231Z,98950.00
2024-04-15T19:36:52.933Z,98957.00
2024-04-15T19:39:25.099Z,98960.00
2024-04-15T19:42:01.956Z,98957.00
2024-04-15T19:44:47.654Z,98955.00
2024-04-15T19:47:18.820Z,98962.00
2024-04-15T19:49:50.936Z,98962.00
2024-04-15T19:52:27.623Z,98961.00
2024-04-15T19:54:56.421Z,98958.00
2024-04-15T19:57:27.919Z,98955.00
2024-04-15T19:59:58.888Z,98953.00
2024-04-15T20:02:29.764Z,98965.00
2024-04-15T20:04:58.527Z,98959.00
2024-04-15T20:07:33.329Z,98951.00
2024-04-15T20:10:02.641Z,98966.00
2024-04-15T20:12:34.625Z,98974.00
2024-04-15T20:15:03.831Z,98965.00
2024-04-15T20:17:46.291Z,98966.00
2024-04-15T20:20:16.164Z,98965.00
2024-04-15T20:22:57.540Z,98971.00
2024-04-15T20:25:25.872Z,98972.00
2024-04-15T20:27:57.918Z,98975.00
2024-04-15T20:30:26.497Z,98976.00
2024-04-15T20:32:58.880Z,98977.00
2024-04-15T20:35:31.082Z,98963.00
2024-04-15T20:38:07.448Z,98977.00
2024-04-15T20:40:45.626Z,98972.00
2024-04-15T20:43:16.699Z,98976.00
2024-04-15T20:45:47.806Z,98981.00
2024-04-15T20:48:21.024Z,98988.00
2024-04-15T20:50:49.356Z,98985.00
2024-04-15T20:53:25.839Z,98980.00
2024-04-15T20:55:56.392Z,98977.00
2024-04-15T20:58:31.867Z,98980.00
2024-04-15T21:01:05.267Z,98976.00
2024-04-15T21:03:36.616Z,98982.00
2024-04-15T21:06:15.946Z,98984.00
2024-04-15T21:08:49.521Z,98989.00
2024-04-15T21:11:19.422Z,98992.00
2024-04-15T21:13:50.580Z,98985.00
2024-04-15T21:16:22.879Z,98991.00
2024-04-15T21:18:53.786Z,98999.00
2024-04-15T21:21:22.279Z,98996.00
2024-04-15T21:23:58.757Z,99004.00
2024-04-15T21:26:27.348Z,98996.00
2024-04-15T21:28:58.781Z,99004.00
2024-04-15T21:31:28.410Z,99005.00
2024-04-15T21:34:02.979Z,99003.00
2024-04-15T21:36:31.580Z,99004.00
2024-04-15T21:39:06.320Z,99004.00
2024-04-15T21:41:44.463Z,99000.00
2024-04-15T21:44:17.488Z,99008.00
2024-04-15T21:46:58.728Z,99009.00
2024-04-15T21:49:30.958Z,99014.00
2024-04-15T21:52:05.133Z,99023.00
2024-04-15T21:54:47.999Z,99015.00
2024-04-15T21:57:19.251Z,99021.00
2024-04-15T22:00:10.039Z,99016.00
2024-04-15T22:02:39.454Z,99016.00
2024-04-15T22:05:17.751Z,99023.00
2024-04-15T22:07:51.478Z,99016.00
2024-04-15T22:10:34.700Z,99023.00
2024-04-15T22:13:10.067Z,99013.00
2024-04-15T22:15:41.614Z,99024.00
2024-04-15T22:18:35.545Z,99010.00
2024-04-15T22:21:13.252Z,99018.00
2024-04-15T22:23:48.370Z,99024.00
2024-04-15T22:26:26.288Z,99023.00
2024-04-15T22:28:56.956Z,99024.00
2024-04-15T22:31:42.738Z,99025.00
2024-04-15T22:34:25.044Z,99019.00
2024-04-15T22:37:07.794Z,99022.00
2024-04-15T22:39:45.376Z,99023.00
2024-04-15T22:42:22.598Z,99021.00
2024-04-15T22:44:59.966Z,99025.00
2024-04-15T22:47:31.798Z,99018.00
2024-04-15T22:50:00.457Z,99023.00
2024-04-15T22:52:48.925Z,99024.00
2024-04-15T22:55:25.987Z,99026.00
2024-04-15T22:57:59.482Z,99030.00
2024-04-15T23:00:37.379Z,99029.00
2024-04-15T23:03:14.105Z,99025.00
2024-04-15T23:05:45.682Z,99025.00
2024-04-15T23:08:17.403Z,99029.00
2024-04-15T23:10:52.808Z,99024.00
2024-04-15T23:13:27.001Z,99021.00
2024-04-15T23:16:04.211Z,99029.00
2024-04-15T23:18:36.877Z,99031.00
2024-04-15T23:21:12.510Z,99029.00
2024-04-15T23:23:47.848Z,99036.00
2024-04-15T23:26:20.024Z,99028.00
2024-04-15T23:28:55.837Z,99024.00
2024-04-15T23:31:28.911Z,99031.00
2024-04-15T23:34:08.844Z,99036.00
2024-04-15T23:36:44.624Z,99036.00
2024-04-15T23:39:19.614Z,99039.00
2024-04-15T23:41:56.701Z,99037.00
2024-04-15T23:44:37.546Z,99040.00
2024-04-15T23:47:33.519Z,99040.00
2024-04-15T23:50:23.608Z,99037.00
2024-04-15T23:53:13.032Z,99039.00
2024-04-15T23:56:07.305Z,99041.00
2024-04-15T23:58:37.923Z,99039.00
